sensor_id;sensor_type;location;lat;lon;timestamp;P1;durP1;ratioP1;P2;durP2;ratioP2
19985;SDS011;10154;52.474;10.768;2023-02-01T00:00:27;21.83;;;2.40;;
19985;SDS011;10154;52.474;10.768;2023-02-01T00:03:05;13.77;;;1.77;;
19985;SDS011;10154;52.474;10.768;2023-02-01T00:05:33;11.47;;;2.47;;
19985;SDS011;10154;52.474;10.768;2023-02-01T00:07:59;28.37;;;2.93;;
19985;SDS011;10154;52.474;10.768;2023-02-01T00:10:39;19.63;;;2.97;;
19985;SDS011;10154;52.474;10.768;2023-02-01T00:13:13;29.13;;;2.57;;
19985;SDS011;10154;52.474;10.768;2023-02-01T00:15:42;14.80;;;1.73;;
19985;SDS011;10154;52.474;10.768;2023-02-01T00:18:07;10.83;;;1.50;;
19985;SDS011;10154;52.474;10.768;2023-02-01T00:20:38;17.27;;;2.97;;
19985;SDS011;10154;52.474;10.768;2023-02-01T00:23:13;5.17;;;1.47;;
19985;SDS011;10154;52.474;10.768;2023-02-01T00:26:22;11.30;;;1.37;;
19985;SDS011;10154;52.474;10.768;2023-02-01T00:29:02;13.33;;;2.10;;
19985;SDS011;10154;52.474;10.768;2023-02-01T00:31:34;13.83;;;1.10;;
19985;SDS011;10154;52.474;10.768;2023-02-01T00:34:03;21.37;;;2.63;;
19985;SDS011;10154;52.474;10.768;2023-02-01T00:36:29;23.87;;;3.07;;
19985;SDS011;10154;52.474;10.768;2023-02-01T00:39:03;28.60;;;2.97;;
19985;SDS011;10154;52.474;10.768;2023-02-01T00:41:32;19.77;;;2.37;;
19985;SDS011;10154;52.474;10.768;2023-02-01T00:44:09;15.70;;;1.80;;
19985;SDS011;10154;52.474;10.768;2023-02-01T00:46:35;14.57;;;1.40;;
19985;SDS011;10154;52.474;10.768;2023-02-01T00:49:01;27.17;;;3.37;;
19985;SDS011;10154;52.474;10.768;2023-02-01T00:51:27;18.93;;;1.93;;
19985;SDS011;10154;52.474;10.768;2023-02-01T00:53:53;14.10;;;2.03;;
19985;SDS011;10154;52.474;10.768;2023-02-01T00:56:22;16.90;;;2.07;;
19985;SDS011;10154;52.474;10.768;2023-02-01T00:58:49;18.50;;;2.17;;
19985;SDS011;10154;52.474;10.768;2023-02-01T01:01:16;12.97;;;1.70;;
19985;SDS011;10154;52.474;10.768;2023-02-01T01:03:56;22.00;;;2.60;;
19985;SDS011;10154;52.474;10.768;2023-02-01T01:06:26;28.07;;;3.23;;
19985;SDS011;10154;52.474;10.768;2023-02-01T01:08:54;18.37;;;2.67;;
19985;SDS011;10154;52.474;10.768;2023-02-01T01:11:33;22.67;;;2.93;;
19985;SDS011;10154;52.474;10.768;2023-02-01T01:14:03;32.93;;;3.10;;
19985;SDS011;10154;52.474;10.768;2023-02-01T01:16:33;30.10;;;3.07;;
19985;SDS011;10154;52.474;10.768;2023-02-01T01:19:07;19.53;;;2.50;;
19985;SDS011;10154;52.474;10.768;2023-02-01T01:21:51;26.80;;;3.10;;
19985;SDS011;10154;52.474;10.768;2023-02-01T01:24:37;25.67;;;2.70;;
19985;SDS011;10154;52.474;10.768;2023-02-01T01:27:10;20.20;;;3.07;;
19985;SDS011;10154;52.474;10.768;2023-02-01T01:30:08;23.83;;;3.10;;
19985;SDS011;10154;52.474;10.768;2023-02-01T01:32:54;18.70;;;2.00;;
19985;SDS011;10154;52.474;10.768;2023-02-01T01:35:29;23.97;;;2.97;;
19985;SDS011;10154;52.474;10.768;2023-02-01T01:38:06;20.77;;;2.87;;
19985;SDS011;10154;52.474;10.768;2023-02-01T01:40:34;27.70;;;3.10;;
19985;SDS011;10154;52.474;10.768;2023-02-01T01:43:03;17.87;;;1.73;;
19985;SDS011;10154;52.474;10.768;2023-02-01T01:45:31;23.70;;;1.90;;
19985;SDS011;10154;52.474;10.768;2023-02-01T01:48:03;23.20;;;2.67;;
19985;SDS011;10154;52.474;10.768;2023-02-01T01:50:40;22.97;;;2.53;;
19985;SDS011;10154;52.474;10.768;2023-02-01T01:53:09;13.67;;;1.67;;
19985;SDS011;10154;52.474;10.768;2023-02-01T01:55:37;14.47;;;1.37;;
19985;SDS011;10154;52.474;10.768;2023-02-01T01:58:08;23.03;;;2.70;;
19985;SDS011;10154;52.474;10.768;2023-02-01T02:00:40;16.63;;;1.57;;
19985;SDS011;10154;52.474;10.768;2023-02-01T02:03:14;11.47;;;2.03;;
19985;SDS011;10154;52.474;10.768;2023-02-01T02:05:45;24.97;;;2.33;;
19985;SDS011;10154;52.474;10.768;2023-02-01T02:08:11;22.53;;;2.23;;
19985;SDS011;10154;52.474;10.768;2023-02-01T02:10:37;21.30;;;2.20;;
19985;SDS011;10154;52.474;10.768;2023-02-01T02:13:21;22.93;;;2.93;;
19985;SDS011;10154;52.474;10.768;2023-02-01T02:15:52;20.33;;;2.40;;
19985;SDS011;10154;52.474;10.768;2023-02-01T02:18:57;7.97;;;1.30;;
19985;SDS011;10154;52.474;10.768;2023-02-01T02:24:52;12.00;;;1.70;;
19985;SDS011;10154;52.474;10.768;2023-02-01T02:36:10;21.63;;;2.57;;
19985;SDS011;10154;52.474;10.768;2023-02-01T02:44:53;20.07;;;2.73;;
19985;SDS011;10154;52.474;10.768;2023-02-01T02:50:37;26.43;;;2.33;;
19985;SDS011;10154;52.474;10.768;2023-02-01T02:56:45;15.70;;;2.53;;
19985;SDS011;10154;52.474;10.768;2023-02-01T02:59:32;23.33;;;2.67;;
19985;SDS011;10154;52.474;10.768;2023-02-01T03:02:16;21.73;;;3.13;;
19985;SDS011;10154;52.474;10.768;2023-02-01T03:05:02;12.87;;;2.13;;
19985;SDS011;10154;52.474;10.768;2023-02-01T03:10:24;15.87;;;2.30;;
19985;SDS011;10154;52.474;10.768;2023-02-01T03:12:52;13.17;;;2.00;;
19985;SDS011;10154;52.474;10.768;2023-02-01T03:15:36;19.13;;;2.13;;
19985;SDS011;10154;52.474;10.768;2023-02-01T03:18:11;14.17;;;2.17;;
19985;SDS011;10154;52.474;10.768;2023-02-01T03:20:56;24.20;;;2.63;;
19985;SDS011;10154;52.474;10.768;2023-02-01T03:23:27;22.20;;;2.73;;
19985;SDS011;10154;52.474;10.768;2023-02-01T03:26:02;10.23;;;1.43;;
19985;SDS011;10154;52.474;10.768;2023-02-01T03:28:29;10.40;;;1.47;;
19985;SDS011;10154;52.474;10.768;2023-02-01T03:31:05;21.77;;;2.67;;
19985;SDS011;10154;52.474;10.768;2023-02-01T03:33:32;16.80;;;2.57;;
19985;SDS011;10154;52.474;10.768;2023-02-01T03:38:50;18.60;;;2.37;;
19985;SDS011;10154;52.474;10.768;2023-02-01T03:46:32;20.90;;;3.07;;
19985;SDS011;10154;52.474;10.768;2023-02-01T03:49:06;32.57;;;2.33;;
19985;SDS011;10154;52.474;10.768;2023-02-01T03:51:33;28.77;;;2.90;;
19985;SDS011;10154;52.474;10.768;2023-02-01T03:54:04;19.13;;;3.13;;
19985;SDS011;10154;52.474;10.768;2023-02-01T03:56:32;18.23;;;2.60;;
19985;SDS011;10154;52.474;10.768;2023-02-01T03:59:02;15.17;;;1.47;;
19985;SDS011;10154;52.474;10.768;2023-02-01T04:01:28;12.73;;;2.10;;
19985;SDS011;10154;52.474;10.768;2023-02-01T04:03:55;20.97;;;3.07;;
19985;SDS011;10154;52.474;10.768;2023-02-01T04:06:24;29.47;;;4.10;;
19985;SDS011;10154;52.474;10.768;2023-02-01T04:08:50;22.70;;;3.10;;
19985;SDS011;10154;52.474;10.768;2023-02-01T04:11:16;30.93;;;3.43;;
19985;SDS011;10154;52.474;10.768;2023-02-01T04:13:42;28.53;;;2.53;;
19985;SDS011;10154;52.474;10.768;2023-02-01T04:16:08;19.60;;;2.93;;
19985;SDS011;10154;52.474;10.768;2023-02-01T04:18:34;20.70;;;3.23;;
19985;SDS011;10154;52.474;10.768;2023-02-01T04:21:00;24.17;;;4.07;;
19985;SDS011;10154;52.474;10.768;2023-02-01T04:23:27;20.80;;;3.47;;
19985;SDS011;10154;52.474;10.768;2023-02-01T04:26:03;24.53;;;3.37;;
19985;SDS011;10154;52.474;10.768;2023-02-01T04:28:29;20.57;;;2.37;;
19985;SDS011;10154;52.474;10.768;2023-02-01T04:30:55;26.80;;;3.87;;
19985;SDS011;10154;52.474;10.768;2023-02-01T04:33:21;28.13;;;4.00;;
19985;SDS011;10154;52.474;10.768;2023-02-01T04:35:46;16.77;;;2.70;;
19985;SDS011;10154;52.474;10.768;2023-02-01T04:38:12;21.83;;;3.00;;
19985;SDS011;10154;52.474;10.768;2023-02-01T04:40:37;19.90;;;2.57;;
19985;SDS011;10154;52.474;10.768;2023-02-01T04:43:03;13.40;;;2.23;;
19985;SDS011;10154;52.474;10.768;2023-02-01T04:45:29;22.07;;;3.00;;
19985;SDS011;10154;52.474;10.768;2023-02-01T04:47:54;27.60;;;2.93;;
19985;SDS011;10154;52.474;10.768;2023-02-01T04:50:20;24.73;;;4.00;;
19985;SDS011;10154;52.474;10.768;2023-02-01T04:52:45;25.57;;;2.47;;
19985;SDS011;10154;52.474;10.768;2023-02-01T04:55:11;20.70;;;3.07;;
19985;SDS011;10154;52.474;10.768;2023-02-01T04:57:38;10.20;;;1.93;;
19985;SDS011;10154;52.474;10.768;2023-02-01T05:00:05;24.77;;;3.50;;
19985;SDS011;10154;52.474;10.768;2023-02-01T05:02:31;9.83;;;2.00;;
19985;SDS011;10154;52.474;10.768;2023-02-01T05:04:57;15.90;;;2.43;;
19985;SDS011;10154;52.474;10.768;2023-02-01T05:07:22;30.43;;;3.27;;
19985;SDS011;10154;52.474;10.768;2023-02-01T05:09:48;7.63;;;1.37;;
19985;SDS011;10154;52.474;10.768;2023-02-01T05:12:14;13.93;;;2.13;;
19985;SDS011;10154;52.474;10.768;2023-02-01T05:14:58;21.67;;;3.03;;
19985;SDS011;10154;52.474;10.768;2023-02-01T05:17:24;26.03;;;3.07;;
19985;SDS011;10154;52.474;10.768;2023-02-01T05:19:49;14.23;;;2.40;;
19985;SDS011;10154;52.474;10.768;2023-02-01T05:22:15;28.40;;;2.93;;
19985;SDS011;10154;52.474;10.768;2023-02-01T05:24:41;15.50;;;3.30;;
19985;SDS011;10154;52.474;10.768;2023-02-01T05:27:06;20.50;;;2.67;;
19985;SDS011;10154;52.474;10.768;2023-02-01T05:29:32;24.20;;;3.37;;
19985;SDS011;10154;52.474;10.768;2023-02-01T05:31:57;22.57;;;3.07;;
19985;SDS011;10154;52.474;10.768;2023-02-01T05:34:22;17.97;;;2.67;;
19985;SDS011;10154;52.474;10.768;2023-02-01T05:36:48;19.03;;;1.90;;
19985;SDS011;10154;52.474;10.768;2023-02-01T05:39:13;17.17;;;3.13;;
19985;SDS011;10154;52.474;10.768;2023-02-01T05:41:39;24.83;;;3.43;;
19985;SDS011;10154;52.474;10.768;2023-02-01T05:44:04;19.13;;;2.90;;
19985;SDS011;10154;52.474;10.768;2023-02-01T05:46:32;11.67;;;2.23;;
19985;SDS011;10154;52.474;10.768;2023-02-01T05:48:58;17.70;;;2.80;;
19985;SDS011;10154;52.474;10.768;2023-02-01T05:51:24;16.97;;;1.70;;
19985;SDS011;10154;52.474;10.768;2023-02-01T05:53:49;20.77;;;2.50;;
19985;SDS011;10154;52.474;10.768;2023-02-01T05:56:15;16.07;;;2.40;;
19985;SDS011;10154;52.474;10.768;2023-02-01T05:58:43;15.47;;;2.73;;
19985;SDS011;10154;52.474;10.768;2023-02-01T06:01:08;8.20;;;2.17;;
19985;SDS011;10154;52.474;10.768;2023-02-01T06:03:34;16.20;;;2.90;;
19985;SDS011;10154;52.474;10.768;2023-02-01T06:06:02;12.87;;;2.43;;
19985;SDS011;10154;52.474;10.768;2023-02-01T06:08:29;16.70;;;3.00;;
19985;SDS011;10154;52.474;10.768;2023-02-01T06:10:58;10.63;;;2.17;;
19985;SDS011;10154;52.474;10.768;2023-02-01T06:13:24;15.47;;;2.70;;
19985;SDS011;10154;52.474;10.768;2023-02-01T06:15:50;14.17;;;2.27;;
19985;SDS011;10154;52.474;10.768;2023-02-01T06:18:16;11.57;;;2.03;;
19985;SDS011;10154;52.474;10.768;2023-02-01T06:20:42;17.60;;;2.83;;
19985;SDS011;10154;52.474;10.768;2023-02-01T06:23:07;5.93;;;1.73;;
19985;SDS011;10154;52.474;10.768;2023-02-01T06:25:33;6.33;;;2.27;;
19985;SDS011;10154;52.474;10.768;2023-02-01T06:28:01;14.07;;;2.53;;
19985;SDS011;10154;52.474;10.768;2023-02-01T06:30:27;13.80;;;3.00;;
19985;SDS011;10154;52.474;10.768;2023-02-01T06:32:53;10.53;;;2.43;;
19985;SDS011;10154;52.474;10.768;2023-02-01T06:35:21;16.57;;;2.80;;
19985;SDS011;10154;52.474;10.768;2023-02-01T06:37:46;9.67;;;2.00;;
19985;SDS011;10154;52.474;10.768;2023-02-01T06:40:12;10.20;;;3.00;;
19985;SDS011;10154;52.474;10.768;2023-02-01T06:42:38;16.43;;;3.40;;
19985;SDS011;10154;52.474;10.768;2023-02-01T06:45:03;15.37;;;2.93;;
19985;SDS011;10154;52.474;10.768;2023-02-01T06:47:31;8.87;;;2.30;;
19985;SDS011;10154;52.474;10.768;2023-02-01T06:49:57;6.47;;;2.07;;
19985;SDS011;10154;52.474;10.768;2023-02-01T06:52:22;19.40;;;3.93;;
19985;SDS011;10154;52.474;10.768;2023-02-01T06:54:47;16.23;;;2.83;;
19985;SDS011;10154;52.474;10.768;2023-02-01T06:57:13;18.27;;;3.47;;
19985;SDS011;10154;52.474;10.768;2023-02-01T06:59:39;8.43;;;2.10;;
19985;SDS011;10154;52.474;10.768;2023-02-01T07:02:05;10.83;;;2.47;;
19985;SDS011;10154;52.474;10.768;2023-02-01T07:04:30;17.37;;;3.03;;
19985;SDS011;10154;52.474;10.768;2023-02-01T07:06:55;14.00;;;2.83;;
19985;SDS011;10154;52.474;10.768;2023-02-01T07:09:21;14.23;;;2.90;;
19985;SDS011;10154;52.474;10.768;2023-02-01T07:11:46;6.90;;;1.50;;
19985;SDS011;10154;52.474;10.768;2023-02-01T07:14:12;5.80;;;1.23;;
19985;SDS011;10154;52.474;10.768;2023-02-01T07:16:41;9.40;;;2.23;;
19985;SDS011;10154;52.474;10.768;2023-02-01T07:19:06;6.90;;;1.33;;
19985;SDS011;10154;52.474;10.768;2023-02-01T07:21:32;8.57;;;1.60;;
19985;SDS011;10154;52.474;10.768;2023-02-01T07:23:58;8.30;;;2.13;;
19985;SDS011;10154;52.474;10.768;2023-02-01T07:26:23;11.80;;;2.20;;
19985;SDS011;10154;52.474;10.768;2023-02-01T07:28:49;7.03;;;1.20;;
19985;SDS011;10154;52.474;10.768;2023-02-01T07:31:15;9.70;;;2.13;;
19985;SDS011;10154;52.474;10.768;2023-02-01T07:33:44;4.60;;;1.47;;
19985;SDS011;10154;52.474;10.768;2023-02-01T07:36:11;11.13;;;2.40;;
19985;SDS011;10154;52.474;10.768;2023-02-01T07:38:37;8.47;;;1.90;;
19985;SDS011;10154;52.474;10.768;2023-02-01T07:41:04;3.00;;;1.07;;
19985;SDS011;10154;52.474;10.768;2023-02-01T07:43:30;8.40;;;1.53;;
19985;SDS011;10154;52.474;10.768;2023-02-01T07:45:58;8.93;;;2.27;;
19985;SDS011;10154;52.474;10.768;2023-02-01T07:48:24;1.20;;;0.80;;
19985;SDS011;10154;52.474;10.768;2023-02-01T07:50:57;9.17;;;1.97;;
19985;SDS011;10154;52.474;10.768;2023-02-01T07:53:25;1.57;;;0.73;;
19985;SDS011;10154;52.474;10.768;2023-02-01T07:55:51;8.03;;;1.90;;
19985;SDS011;10154;52.474;10.768;2023-02-01T07:58:17;6.93;;;1.97;;
19985;SDS011;10154;52.474;10.768;2023-02-01T08:00:45;8.87;;;2.13;;
19985;SDS011;10154;52.474;10.768;2023-02-01T08:03:29;5.50;;;1.63;;
19985;SDS011;10154;52.474;10.768;2023-02-01T08:05:54;9.67;;;1.57;;
19985;SDS011;10154;52.474;10.768;2023-02-01T08:08:20;5.73;;;1.80;;
19985;SDS011;10154;52.474;10.768;2023-02-01T08:10:46;8.70;;;1.80;;
19985;SDS011;10154;52.474;10.768;2023-02-01T08:13:11;9.17;;;1.20;;
19985;SDS011;10154;52.474;10.768;2023-02-01T08:15:37;9.13;;;2.13;;
19985;SDS011;10154;52.474;10.768;2023-02-01T08:18:03;8.73;;;1.50;;
19985;SDS011;10154;52.474;10.768;2023-02-01T08:20:29;7.43;;;1.80;;
19985;SDS011;10154;52.474;10.768;2023-02-01T08:22:55;6.20;;;1.67;;
19985;SDS011;10154;52.474;10.768;2023-02-01T08:25:21;8.37;;;2.10;;
19985;SDS011;10154;52.474;10.768;2023-02-01T08:27:47;7.67;;;1.33;;
19985;SDS011;10154;52.474;10.768;2023-02-01T08:30:13;8.30;;;1.73;;
19985;SDS011;10154;52.474;10.768;2023-02-01T08:32:39;6.10;;;1.03;;
19985;SDS011;10154;52.474;10.768;2023-02-01T08:35:05;3.47;;;1.40;;
19985;SDS011;10154;52.474;10.768;2023-02-01T08:37:30;7.60;;;1.67;;
19985;SDS011;10154;52.474;10.768;2023-02-01T08:39:56;7.83;;;1.90;;
19985;SDS011;10154;52.474;10.768;2023-02-01T08:42:21;10.53;;;2.23;;
19985;SDS011;10154;52.474;10.768;2023-02-01T08:45:06;5.60;;;1.30;;
19985;SDS011;10154;52.474;10.768;2023-02-01T08:47:33;7.80;;;1.67;;
19985;SDS011;10154;52.474;10.768;2023-02-01T08:50:01;8.17;;;1.67;;
19985;SDS011;10154;52.474;10.768;2023-02-01T08:52:27;9.77;;;1.30;;
19985;SDS011;10154;52.474;10.768;2023-02-01T08:54:55;10.07;;;2.03;;
19985;SDS011;10154;52.474;10.768;2023-02-01T08:57:21;9.87;;;2.33;;
19985;SDS011;10154;52.474;10.768;2023-02-01T08:59:46;9.20;;;1.63;;
19985;SDS011;10154;52.474;10.768;2023-02-01T09:02:15;8.03;;;1.67;;
19985;SDS011;10154;52.474;10.768;2023-02-01T09:04:42;14.73;;;1.90;;
19985;SDS011;10154;52.474;10.768;2023-02-01T09:07:08;8.53;;;1.40;;
19985;SDS011;10154;52.474;10.768;2023-02-01T09:09:34;10.17;;;1.77;;
19985;SDS011;10154;52.474;10.768;2023-02-01T09:11:59;5.77;;;1.33;;
19985;SDS011;10154;52.474;10.768;2023-02-01T09:14:25;7.03;;;1.93;;
19985;SDS011;10154;52.474;10.768;2023-02-01T09:16:50;11.43;;;2.10;;
19985;SDS011;10154;52.474;10.768;2023-02-01T09:19:16;7.43;;;1.13;;
19985;SDS011;10154;52.474;10.768;2023-02-01T09:21:41;4.20;;;1.03;;
19985;SDS011;10154;52.474;10.768;2023-02-01T09:24:08;10.90;;;1.60;;
19985;SDS011;10154;52.474;10.768;2023-02-01T09:26:35;9.07;;;1.60;;
19985;SDS011;10154;52.474;10.768;2023-02-01T09:29:01;10.10;;;1.80;;
19985;SDS011;10154;52.474;10.768;2023-02-01T09:31:26;12.47;;;2.17;;
19985;SDS011;10154;52.474;10.768;2023-02-01T09:33:52;11.90;;;2.17;;
19985;SDS011;10154;52.474;10.768;2023-02-01T09:36:17;7.43;;;1.63;;
19985;SDS011;10154;52.474;10.768;2023-02-01T09:38:44;10.30;;;2.20;;
19985;SDS011;10154;52.474;10.768;2023-02-01T09:41:19;5.63;;;1.70;;
19985;SDS011;10154;52.474;10.768;2023-02-01T09:44:21;11.80;;;1.67;;
19985;SDS011;10154;52.474;10.768;2023-02-01T09:46:58;7.20;;;1.07;;
19985;SDS011;10154;52.474;10.768;2023-02-01T09:49:31;3.37;;;1.03;;
19985;SDS011;10154;52.474;10.768;2023-02-01T09:52:00;3.47;;;1.20;;
19985;SDS011;10154;52.474;10.768;2023-02-01T09:54:28;5.20;;;1.10;;
19985;SDS011;10154;52.474;10.768;2023-02-01T09:57:19;4.13;;;1.10;;
19985;SDS011;10154;52.474;10.768;2023-02-01T09:59:55;6.17;;;1.07;;
19985;SDS011;10154;52.474;10.768;2023-02-01T10:02:40;3.97;;;1.00;;
19985;SDS011;10154;52.474;10.768;2023-02-01T10:05:05;7.07;;;1.07;;
19985;SDS011;10154;52.474;10.768;2023-02-01T10:10:21;5.00;;;1.20;;
19985;SDS011;10154;52.474;10.768;2023-02-01T10:13:02;4.30;;;1.10;;
19985;SDS011;10154;52.474;10.768;2023-02-01T10:19:10;4.83;;;1.40;;
19985;SDS011;10154;52.474;10.768;2023-02-01T10:22:01;5.23;;;1.03;;
19985;SDS011;10154;52.474;10.768;2023-02-01T10:27:14;18.27;;;2.30;;
19985;SDS011;10154;52.474;10.768;2023-02-01T10:29:48;11.37;;;1.67;;
19985;SDS011;10154;52.474;10.768;2023-02-01T10:32:28;6.50;;;1.27;;
19985;SDS011;10154;52.474;10.768;2023-02-01T10:35:00;23.33;;;2.87;;
19985;SDS011;10154;52.474;10.768;2023-02-01T10:37:30;14.37;;;2.20;;
19985;SDS011;10154;52.474;10.768;2023-02-01T10:39:57;6.50;;;1.37;;
19985;SDS011;10154;52.474;10.768;2023-02-01T10:42:26;13.63;;;1.70;;
19985;SDS011;10154;52.474;10.768;2023-02-01T10:44:52;18.90;;;1.90;;
19985;SDS011;10154;52.474;10.768;2023-02-01T10:47:19;15.43;;;2.10;;
19985;SDS011;10154;52.474;10.768;2023-02-01T10:50:03;16.33;;;2.33;;
19985;SDS011;10154;52.474;10.768;2023-02-01T10:52:50;12.23;;;2.47;;
19985;SDS011;10154;52.474;10.768;2023-02-01T10:55:39;9.83;;;1.57;;
19985;SDS011;10154;52.474;10.768;2023-02-01T10:58:10;11.27;;;1.93;;
19985;SDS011;10154;52.474;10.768;2023-02-01T11:00:48;13.37;;;2.20;;
19985;SDS011;10154;52.474;10.768;2023-02-01T11:03:22;7.53;;;1.60;;
19985;SDS011;10154;52.474;10.768;2023-02-01T11:05:58;11.33;;;2.60;;
19985;SDS011;10154;52.474;10.768;2023-02-01T11:08:23;12.57;;;2.20;;
19985;SDS011;10154;52.474;10.768;2023-02-01T11:10:56;21.60;;;2.93;;
19985;SDS011;10154;52.474;10.768;2023-02-01T11:13:27;14.13;;;1.50;;
19985;SDS011;10154;52.474;10.768;2023-02-01T11:15:55;10.60;;;1.87;;
19985;SDS011;10154;52.474;10.768;2023-02-01T11:18:25;15.63;;;1.90;;
19985;SDS011;10154;52.474;10.768;2023-02-01T11:20:53;8.03;;;1.70;;
19985;SDS011;10154;52.474;10.768;2023-02-01T11:23:21;8.93;;;1.83;;
19985;SDS011;10154;52.474;10.768;2023-02-01T11:25:49;13.73;;;2.20;;
19985;SDS011;10154;52.474;10.768;2023-02-01T11:28:19;14.00;;;1.80;;
19985;SDS011;10154;52.474;10.768;2023-02-01T11:30:47;17.67;;;2.10;;
19985;SDS011;10154;52.474;10.768;2023-02-01T11:33:14;10.23;;;1.70;;
19985;SDS011;10154;52.474;10.768;2023-02-01T11:35:42;16.00;;;2.80;;
19985;SDS011;10154;52.474;10.768;2023-02-01T11:38:15;12.13;;;1.97;;
19985;SDS011;10154;52.474;10.768;2023-02-01T11:40:45;4.57;;;1.13;;
19985;SDS011;10154;52.474;10.768;2023-02-01T11:45:53;17.77;;;2.20;;
19985;SDS011;10154;52.474;10.768;2023-02-01T11:48:19;8.87;;;1.73;;
19985;SDS011;10154;52.474;10.768;2023-02-01T11:53:25;8.97;;;1.43;;
19985;SDS011;10154;52.474;10.768;2023-02-01T11:58:39;10.43;;;1.90;;
19985;SDS011;10154;52.474;10.768;2023-02-01T12:20:49;16.60;;;1.97;;
19985;SDS011;10154;52.474;10.768;2023-02-01T12:23:34;14.03;;;2.00;;
19985;SDS011;10154;52.474;10.768;2023-02-01T12:29:19;13.13;;;1.80;;
19985;SDS011;10154;52.474;10.768;2023-02-01T12:34:41;18.77;;;2.30;;
19985;SDS011;10154;52.474;10.768;2023-02-01T12:37:13;18.17;;;2.67;;
19985;SDS011;10154;52.474;10.768;2023-02-01T12:42:43;13.47;;;2.00;;
19985;SDS011;10154;52.474;10.768;2023-02-01T12:45:56;12.80;;;2.20;;
19985;SDS011;10154;52.474;10.768;2023-02-01T12:50:49;17.40;;;2.47;;
19985;SDS011;10154;52.474;10.768;2023-02-01T12:53:21;10.23;;;1.63;;
19985;SDS011;10154;52.474;10.768;2023-02-01T12:55:50;12.03;;;2.33;;
19985;SDS011;10154;52.474;10.768;2023-02-01T13:01:15;7.73;;;2.00;;
19985;SDS011;10154;52.474;10.768;2023-02-01T13:09:46;16.50;;;2.83;;
19985;SDS011;10154;52.474;10.768;2023-02-01T13:12:17;10.80;;;2.20;;
19985;SDS011;10154;52.474;10.768;2023-02-01T13:14:56;21.73;;;2.97;;
19985;SDS011;10154;52.474;10.768;2023-02-01T13:17:29;16.40;;;2.60;;
19985;SDS011;10154;52.474;10.768;2023-02-01T13:19:58;10.57;;;1.30;;
19985;SDS011;10154;52.474;10.768;2023-02-01T13:22:39;19.10;;;3.00;;
19985;SDS011;10154;52.474;10.768;2023-02-01T13:25:16;16.93;;;2.80;;
19985;SDS011;10154;52.474;10.768;2023-02-01T13:27:46;17.77;;;2.57;;
19985;SDS011;10154;52.474;10.768;2023-02-01T13:30:15;9.60;;;1.93;;
19985;SDS011;10154;52.474;10.768;2023-02-01T13:40:26;21.77;;;3.50;;
19985;SDS011;10154;52.474;10.768;2023-02-01T13:42:57;17.27;;;3.33;;
19985;SDS011;10154;52.474;10.768;2023-02-01T13:45:26;5.70;;;1.63;;
19985;SDS011;10154;52.474;10.768;2023-02-01T13:47:56;15.00;;;3.03;;
19985;SDS011;10154;52.474;10.768;2023-02-01T13:50:29;4.63;;;1.40;;
19985;SDS011;10154;52.474;10.768;2023-02-01T13:55:36;4.40;;;1.57;;
19985;SDS011;10154;52.474;10.768;2023-02-01T13:58:05;5.50;;;1.53;;
19985;SDS011;10154;52.474;10.768;2023-02-01T14:00:32;4.93;;;1.00;;
19985;SDS011;10154;52.474;10.768;2023-02-01T14:13:33;3.87;;;0.97;;
19985;SDS011;10154;52.474;10.768;2023-02-01T14:23:41;4.23;;;1.10;;
19985;SDS011;10154;52.474;10.768;2023-02-01T14:26:09;1.80;;;0.53;;
19985;SDS011;10154;52.474;10.768;2023-02-01T14:28:37;1.30;;;0.60;;
19985;SDS011;10154;52.474;10.768;2023-02-01T14:31:15;2.53;;;0.50;;
19985;SDS011;10154;52.474;10.768;2023-02-01T14:33:43;2.40;;;0.40;;
19985;SDS011;10154;52.474;10.768;2023-02-01T14:36:09;0.50;;;0.40;;
19985;SDS011;10154;52.474;10.768;2023-02-01T14:38:37;2.00;;;0.43;;
19985;SDS011;10154;52.474;10.768;2023-02-01T14:41:12;3.03;;;0.50;;
19985;SDS011;10154;52.474;10.768;2023-02-01T14:49:31;0.60;;;0.50;;
19985;SDS011;10154;52.474;10.768;2023-02-01T14:51:58;12.00;;;0.80;;
19985;SDS011;10154;52.474;10.768;2023-02-01T14:54:24;2.00;;;0.70;;
19985;SDS011;10154;52.474;10.768;2023-02-01T14:56:51;7.40;;;0.83;;
19985;SDS011;10154;52.474;10.768;2023-02-01T14:59:17;2.87;;;0.80;;
19985;SDS011;10154;52.474;10.768;2023-02-01T15:01:50;4.17;;;0.80;;
19985;SDS011;10154;52.474;10.768;2023-02-01T15:04:19;3.37;;;0.87;;
19985;SDS011;10154;52.474;10.768;2023-02-01T15:12:00;4.70;;;1.00;;
19985;SDS011;10154;52.474;10.768;2023-02-01T15:15:10;2.67;;;0.50;;
19985;SDS011;10154;52.474;10.768;2023-02-01T15:17:39;3.23;;;1.10;;
19985;SDS011;10154;52.474;10.768;2023-02-01T15:20:14;6.07;;;0.80;;
19985;SDS011;10154;52.474;10.768;2023-02-01T15:22:42;3.67;;;0.80;;
19985;SDS011;10154;52.474;10.768;2023-02-01T15:25:18;4.53;;;0.90;;
19985;SDS011;10154;52.474;10.768;2023-02-01T15:27:49;3.53;;;0.70;;
19985;SDS011;10154;52.474;10.768;2023-02-01T15:32:47;4.83;;;0.70;;
19985;SDS011;10154;52.474;10.768;2023-02-01T15:41:19;4.77;;;0.70;;
19985;SDS011;10154;52.474;10.768;2023-02-01T15:46:33;3.67;;;0.80;;
19985;SDS011;10154;52.474;10.768;2023-02-01T15:49:01;4.77;;;0.97;;
19985;SDS011;10154;52.474;10.768;2023-02-01T15:51:28;6.30;;;1.23;;
19985;SDS011;10154;52.474;10.768;2023-02-01T15:54:02;7.57;;;1.20;;
19985;SDS011;10154;52.474;10.768;2023-02-01T15:56:37;4.80;;;0.80;;
19985;SDS011;10154;52.474;10.768;2023-02-01T15:59:05;7.10;;;1.20;;
19985;SDS011;10154;52.474;10.768;2023-02-01T16:01:38;10.07;;;1.30;;
19985;SDS011;10154;52.474;10.768;2023-02-01T16:06:44;5.77;;;0.90;;
19985;SDS011;10154;52.474;10.768;2023-02-01T16:09:34;7.77;;;0.90;;
19985;SDS011;10154;52.474;10.768;2023-02-01T16:12:02;6.73;;;1.33;;
19985;SDS011;10154;52.474;10.768;2023-02-01T16:14:28;9.17;;;1.80;;
19985;SDS011;10154;52.474;10.768;2023-02-01T16:16:55;6.63;;;1.50;;
19985;SDS011;10154;52.474;10.768;2023-02-01T16:19:22;10.03;;;1.30;;
19985;SDS011;10154;52.474;10.768;2023-02-01T16:21:50;7.43;;;1.30;;
19985;SDS011;10154;52.474;10.768;2023-02-01T16:24:15;5.10;;;1.20;;
19985;SDS011;10154;52.474;10.768;2023-02-01T16:26:40;4.53;;;1.17;;
19985;SDS011;10154;52.474;10.768;2023-02-01T16:29:06;7.37;;;1.10;;
19985;SDS011;10154;52.474;10.768;2023-02-01T16:31:34;6.43;;;1.27;;
19985;SDS011;10154;52.474;10.768;2023-02-01T16:34:01;9.43;;;1.43;;
19985;SDS011;10154;52.474;10.768;2023-02-01T16:36:27;6.97;;;1.30;;
19985;SDS011;10154;52.474;10.768;2023-02-01T16:38:53;8.40;;;1.40;;
19985;SDS011;10154;52.474;10.768;2023-02-01T16:41:23;5.00;;;1.10;;
19985;SDS011;10154;52.474;10.768;2023-02-01T16:43:53;6.97;;;1.50;;
19985;SDS011;10154;52.474;10.768;2023-02-01T16:46:20;9.53;;;1.30;;
19985;SDS011;10154;52.474;10.768;2023-02-01T16:48:51;12.20;;;1.60;;
19985;SDS011;10154;52.474;10.768;2023-02-01T16:51:18;5.67;;;0.90;;
19985;SDS011;10154;52.474;10.768;2023-02-01T16:53:44;2.90;;;1.17;;
19985;SDS011;10154;52.474;10.768;2023-02-01T16:56:17;8.03;;;1.50;;
19985;SDS011;10154;52.474;10.768;2023-02-01T16:58:45;9.33;;;1.50;;
19985;SDS011;10154;52.474;10.768;2023-02-01T17:01:12;7.53;;;1.37;;
19985;SDS011;10154;52.474;10.768;2023-02-01T17:03:39;5.90;;;1.83;;
19985;SDS011;10154;52.474;10.768;2023-02-01T17:06:04;15.43;;;1.70;;
19985;SDS011;10154;52.474;10.768;2023-02-01T17:08:32;9.80;;;1.70;;